createdAt,value
2016-06-06T08:40:03.355Z,970.08
2016-06-06T08:41:03.374Z,970
2016-06-06T08:42:03.377Z,970.03
2016-06-06T08:43:03.395Z,970.05
2016-06-06T08:44:03.522Z,970.03
2016-06-06T08:45:03.447Z,970.04
2016-06-06T08:46:03.418Z,970.02
2016-06-06T08:47:03.436Z,970
2016-06-06T08:48:03.439Z,970
2016-06-06T08:49:03.458Z,970.03
2016-06-06T08:50:03.460Z,970.04
2016-06-06T08:51:03.479Z,970.01
2016-06-06T08:52:03.482Z,970.02
2016-06-06T08:53:03.499Z,970.05
2016-06-06T08:54:03.502Z,970.03
2016-06-06T08:55:03.521Z,970.05
2016-06-06T08:56:03.523Z,970.06
2016-06-06T08:57:03.542Z,970.11
2016-06-06T08:58:03.559Z,970.17
2016-06-06T08:59:03.563Z,970.17
2016-06-06T09:00:03.675Z,970.27
2016-06-06T09:01:03.584Z,970.36
2016-06-06T09:02:03.602Z,970.31
2016-06-06T09:03:03.604Z,970.23
2016-06-06T09:04:03.607Z,970.82
2016-06-06T09:05:03.626Z,971.43
2016-06-06T09:06:03.628Z,970.81
2016-06-06T09:07:03.647Z,969.96
2016-06-06T09:08:03.649Z,969.9
2016-06-06T09:09:03.668Z,969.95
2016-06-06T09:10:03.670Z,969.94
2016-06-06T09:11:03.689Z,969.93
2016-06-06T09:12:03.692Z,969.93
2016-06-06T09:13:03.710Z,969.95
2016-06-06T09:14:03.713Z,969.96
2016-06-06T09:15:03.777Z,969.97
2016-06-06T09:16:03.733Z,970.02
2016-06-06T09:17:03.736Z,970
2016-06-06T09:18:03.755Z,970.02
2016-06-06T09:19:03.757Z,970.04
2016-06-06T09:20:03.760Z,969.93
2016-06-06T09:21:03.778Z,969.93
2016-06-06T09:22:03.780Z,969.97
2016-06-06T09:23:03.783Z,969.95
2016-06-06T09:24:03.802Z,969.98
2016-06-06T09:25:03.802Z,969.88
2016-06-06T09:26:03.804Z,969.83
2016-06-06T09:27:03.823Z,969.89
2016-06-06T09:28:03.826Z,969.93
2016-06-06T09:29:03.876Z,969.89
2016-06-06T09:30:03.940Z,969.86
2016-06-06T09:31:03.849Z,969.84
2016-06-06T09:32:03.867Z,969.83
2016-06-06T09:33:03.870Z,969.83
2016-06-06T09:34:03.873Z,969.85
2016-06-06T09:35:03.892Z,969.85
2016-06-06T09:36:03.895Z,969.86
2016-06-06T09:37:03.897Z,969.84
2016-06-06T09:38:03.900Z,969.8
2016-06-06T09:39:03.917Z,969.85
2016-06-06T09:40:03.920Z,969.81
2016-06-06T09:41:03.923Z,969.8
2016-06-06T09:42:03.942Z,969.8
2016-06-06T09:43:03.944Z,969.84
2016-06-06T09:44:04.228Z,969.84
2016-06-06T09:45:03.949Z,969.81
2016-06-06T09:46:03.968Z,969.81
2016-06-06T09:47:03.970Z,969.84
2016-06-06T09:48:03.973Z,969.83
2016-06-06T09:49:03.975Z,969.8
2016-06-06T09:50:03.994Z,969.84
2016-06-06T09:51:04.012Z,969.83
2016-06-06T09:52:03.999Z,969.81
2016-06-06T09:53:04.018Z,969.8
2016-06-06T09:54:04.021Z,969.84
2016-06-06T09:55:04.024Z,969.78
2016-06-06T09:56:04.026Z,969.83
2016-06-06T09:57:04.044Z,969.8
2016-06-06T09:58:04.047Z,969.81
2016-06-06T09:59:04.049Z,969.81
2016-06-06T10:00:04.052Z,969.85
2016-06-06T10:01:04.071Z,969.82
2016-06-06T10:02:04.074Z,969.87
2016-06-06T10:03:04.076Z,969.84
2016-06-06T10:04:04.079Z,969.83
2016-06-06T10:05:04.097Z,969.82
2016-06-06T10:06:04.100Z,969.79
2016-06-06T10:07:04.103Z,969.77
2016-06-06T10:08:04.106Z,969.8
2016-06-06T10:09:04.108Z,969.78
2016-06-06T10:10:04.126Z,969.76
2016-06-06T10:11:04.128Z,969.74
2016-06-06T10:12:04.132Z,969.78
2016-06-06T10:13:04.134Z,969.78
2016-06-06T10:14:04.386Z,969.7
2016-06-06T10:15:04.156Z,969.78
2016-06-06T10:16:04.158Z,969.8
2016-06-06T10:17:04.176Z,969.78
2016-06-06T10:18:04.178Z,969.78
2016-06-06T10:19:04.181Z,969.74
2016-06-06T10:20:04.184Z,969.69
2016-06-06T10:21:04.187Z,969.7
2016-06-06T10:22:04.205Z,969.68
2016-06-06T10:23:04.208Z,969.67
2016-06-06T10:24:04.211Z,969.7
2016-06-06T10:25:04.229Z,969.68
2016-06-06T10:26:04.216Z,969.7
2016-06-06T10:27:04.235Z,969.66
2016-06-06T10:28:04.237Z,969.62
2016-06-06T10:29:04.239Z,969.62
2016-06-06T10:30:04.790Z,969.64
2016-06-06T10:31:04.245Z,969.63
2016-06-06T10:32:04.263Z,969.59
2016-06-06T10:33:04.265Z,969.57
2016-06-06T10:34:04.268Z,969.57
2016-06-06T10:35:04.271Z,969.57
2016-06-06T10:36:04.290Z,969.59
2016-06-06T10:37:04.292Z,969.58
2016-06-06T10:38:04.295Z,969.63
2016-06-06T10:39:04.297Z,969.66
2016-06-06T10:40:04.301Z,969.67
2016-06-06T10:41:04.319Z,969.73
2016-06-06T10:42:04.322Z,969.63
2016-06-06T10:43:04.324Z,969.62
2016-06-06T10:44:04.327Z,969.61
2016-06-06T10:45:04.330Z,969.59
2016-06-06T10:46:04.348Z,969.6
2016-06-06T10:47:04.350Z,969.52
2016-06-06T10:48:04.353Z,969.52
2016-06-06T10:49:04.372Z,969.56
2016-06-06T10:50:04.358Z,969.52
2016-06-06T10:51:04.377Z,969.5
2016-06-06T10:52:04.380Z,969.53
2016-06-06T10:53:04.398Z,969.53
2016-06-06T10:54:04.385Z,969.48
2016-06-06T10:55:04.388Z,969.47
2016-06-06T10:56:04.406Z,969.46
2016-06-06T10:57:04.408Z,969.49
2016-06-06T10:58:04.411Z,969.45
2016-06-06T10:59:04.413Z,969.45
2016-06-06T11:00:05.010Z,969.42
2016-06-06T11:01:04.419Z,969.47
2016-06-06T11:02:04.438Z,969.44
2016-06-06T11:03:04.440Z,969.42
2016-06-06T11:04:04.443Z,969.42
2016-06-06T11:05:04.446Z,969.46
2016-06-06T11:06:04.449Z,969.45
2016-06-06T11:07:04.468Z,969.44
2016-06-06T11:08:04.470Z,969.39
2016-06-06T11:09:04.472Z,969.37
2016-06-06T11:10:04.475Z,969.41
2016-06-06T11:11:04.478Z,969.38
2016-06-06T11:12:04.496Z,969.38
2016-06-06T11:13:04.498Z,969.39
2016-06-06T11:14:04.517Z,969.43
2016-06-06T11:15:04.504Z,969.35
2016-06-06T11:16:04.506Z,969.41
2016-06-06T11:17:04.509Z,969.39
2016-06-06T11:18:04.527Z,969.33
2016-06-06T11:19:04.515Z,969.26
2016-06-06T11:20:04.517Z,969.34
2016-06-06T11:21:04.520Z,969.29
2016-06-06T11:22:04.523Z,969.33
2016-06-06T11:23:04.525Z,969.27
2016-06-06T11:24:04.544Z,969.26
2016-06-06T11:25:04.547Z,969.28
2016-06-06T11:26:04.549Z,969.27
2016-06-06T11:27:04.552Z,969.27
2016-06-06T11:28:04.555Z,969.22
2016-06-06T11:29:04.573Z,969.25
2016-06-06T11:30:04.576Z,969.23
2016-06-06T11:31:04.579Z,969.19
2016-06-06T11:32:04.581Z,969.23
2016-06-06T11:33:04.584Z,969.24
2016-06-06T11:34:04.587Z,969.23
2016-06-06T11:35:04.589Z,969.22
2016-06-06T11:36:04.607Z,969.26
2016-06-06T11:37:04.610Z,969.27
2016-06-06T11:38:04.613Z,969.23
2016-06-06T11:39:04.615Z,969.26
2016-06-06T11:40:04.618Z,969.3
2016-06-06T11:41:04.620Z,969.28
2016-06-06T11:42:04.623Z,969.25
2016-06-06T11:43:04.626Z,969.17
2016-06-06T11:44:04.629Z,969.11
2016-06-06T11:45:04.772Z,969.12
2016-06-06T11:46:04.650Z,969.13
2016-06-06T11:47:04.653Z,969.14
2016-06-06T11:48:04.655Z,969.19
2016-06-06T11:49:04.658Z,969.12
2016-06-06T11:50:04.661Z,969.12
2016-06-06T11:51:04.664Z,969.1
2016-06-06T11:52:04.681Z,969.07
2016-06-06T11:53:04.684Z,969.15
2016-06-06T11:54:04.687Z,969.03
2016-06-06T11:55:04.689Z,969.1
2016-06-06T11:56:04.692Z,969.04
2016-06-06T11:57:04.695Z,969.02
2016-06-06T11:58:04.697Z,968.97
2016-06-06T11:59:04.716Z,969
2016-06-06T12:00:04.718Z,968.99
2016-06-06T12:01:04.722Z,968.96
2016-06-06T12:02:04.724Z,968.94
2016-06-06T12:03:04.726Z,968.95
2016-06-06T12:04:04.730Z,968.96
2016-06-06T12:05:04.749Z,968.89
2016-06-06T12:06:04.735Z,968.91
2016-06-06T12:07:04.753Z,968.94
2016-06-06T12:08:04.757Z,968.98
2016-06-06T12:10:54.233Z,968.92
2016-06-06T12:11:54.251Z,968.91
2016-06-06T12:12:54.473Z,968.94
2016-06-06T12:13:54.273Z,968.97
2016-06-06T12:14:54.275Z,968.87
2016-06-06T12:15:54.278Z,968.88
2016-06-06T12:16:54.281Z,968.86
2016-06-06T12:17:54.298Z,968.86
2016-06-06T12:18:54.301Z,968.91
2016-06-06T12:19:54.289Z,968.93
2016-06-06T12:20:54.306Z,968.88
2016-06-06T12:21:54.309Z,968.89
2016-06-06T12:22:54.312Z,968.83
2016-06-06T12:23:54.314Z,968.8
2016-06-06T12:24:54.317Z,968.84
2016-06-06T12:25:54.335Z,968.82
2016-06-06T12:26:54.338Z,968.89
2016-06-06T12:27:54.341Z,968.87
2016-06-06T12:28:54.343Z,968.95
2016-06-06T12:29:54.346Z,968.89
2016-06-06T12:30:54.349Z,968.92
2016-06-06T12:31:54.352Z,968.88
2016-06-06T12:32:54.355Z,968.89
2016-06-06T12:33:54.357Z,968.9
2016-06-06T12:34:54.375Z,968.88
2016-06-06T12:35:54.379Z,968.87
2016-06-06T12:36:54.381Z,968.88
2016-06-06T12:37:54.384Z,968.86
2016-06-06T12:38:54.386Z,968.9
2016-06-06T12:39:54.389Z,968.86
2016-06-06T12:40:54.407Z,968.85
2016-06-06T12:41:54.410Z,968.84
2016-06-06T12:42:54.412Z,968.86
2016-06-06T12:43:54.432Z,968.8
2016-06-06T12:44:54.418Z,968.76
2016-06-06T12:45:54.420Z,968.8
2016-06-06T12:46:54.423Z,968.82
2016-06-06T12:47:54.426Z,968.83
2016-06-06T12:48:54.445Z,968.8
2016-06-06T12:49:54.447Z,968.79
2016-06-06T12:50:54.450Z,968.77
2016-06-06T12:51:54.453Z,968.83
2016-06-06T12:52:54.455Z,968.83
2016-06-06T12:53:54.458Z,968.77
2016-06-06T12:54:54.461Z,968.83
2016-06-06T12:55:54.464Z,968.76
2016-06-06T12:56:54.466Z,968.74
2016-06-06T12:57:54.468Z,968.74
2016-06-06T12:58:54.486Z,968.68
2016-06-06T12:59:54.896Z,968.61
2016-06-06T13:00:54.492Z,968.73
2016-06-06T13:01:54.495Z,968.73
2016-06-06T13:02:54.497Z,968.69
2016-06-06T13:03:54.516Z,968.71
2016-06-06T13:04:54.502Z,968.68
2016-06-06T13:05:54.506Z,968.69
2016-06-06T13:06:54.524Z,968.74
2016-06-06T13:07:54.526Z,968.61
2016-06-06T13:08:54.530Z,968.63
2016-06-06T13:09:54.532Z,968.64
2016-06-06T13:10:54.535Z,968.63
2016-06-06T13:11:54.537Z,968.66
2016-06-06T13:12:54.540Z,968.65
2016-06-06T13:13:54.746Z,968.71
2016-06-06T13:14:54.546Z,968.63
2016-06-06T13:15:54.564Z,968.65
2016-06-06T13:16:54.567Z,968.69
2016-06-06T13:17:54.569Z,968.65
2016-06-06T13:18:54.572Z,968.64
2016-06-06T13:19:54.575Z,968.63
2016-06-06T13:20:54.578Z,968.65
2016-06-06T13:21:54.580Z,968.58
2016-06-06T13:22:54.583Z,968.66
2016-06-06T13:23:54.586Z,968.75
2016-06-06T13:24:54.588Z,968.71
2016-06-06T13:25:54.606Z,968.72
2016-06-06T13:26:54.609Z,968.74
2016-06-06T13:27:54.611Z,968.69
2016-06-06T13:28:54.614Z,968.7
2016-06-06T13:29:54.633Z,968.7
2016-06-06T13:30:54.619Z,968.67
2016-06-06T13:31:54.622Z,968.66
2016-06-06T13:32:54.625Z,968.6
2016-06-06T13:33:54.627Z,968.6
2016-06-06T13:34:54.630Z,968.7
2016-06-06T13:35:54.649Z,968.65
2016-06-06T13:36:54.652Z,968.63
2016-06-06T13:37:54.654Z,968.61
2016-06-06T13:38:54.657Z,968.55
2016-06-06T13:39:54.660Z,968.57
2016-06-06T13:40:54.662Z,968.58
2016-06-06T13:41:54.665Z,968.58
2016-06-06T13:42:54.667Z,968.53
2016-06-06T13:43:55.280Z,968.54
2016-06-06T13:44:54.674Z,968.57
2016-06-06T13:45:54.692Z,968.56
2016-06-06T13:46:54.694Z,968.55
2016-06-06T13:47:54.698Z,968.55
2016-06-06T13:48:54.700Z,968.52
2016-06-06T13:49:54.702Z,968.54
2016-06-06T13:50:54.705Z,968.55
2016-06-06T13:51:54.708Z,968.53
2016-06-06T13:52:54.711Z,968.49
2016-06-06T13:53:54.728Z,968.47
2016-06-06T13:54:54.731Z,968.47
2016-06-06T13:55:54.734Z,968.45
2016-06-06T13:56:54.736Z,968.52
2016-06-06T13:57:54.739Z,968.52
2016-06-06T13:58:54.741Z,968.52
2016-06-06T13:59:54.744Z,968.53
2016-06-06T14:00:54.763Z,968.55
2016-06-06T14:01:54.750Z,968.46
2016-06-06T14:02:54.753Z,968.49
2016-06-06T14:03:54.771Z,968.49
2016-06-06T14:04:54.774Z,968.45
2016-06-06T14:05:54.777Z,968.46
2016-06-06T14:06:54.780Z,968.42
2016-06-06T14:07:54.782Z,968.42
2016-06-06T14:08:54.785Z,968.44
2016-06-06T14:09:54.787Z,968.46
2016-06-06T14:10:54.790Z,968.39
2016-06-06T14:11:54.793Z,968.41
2016-06-06T14:12:54.968Z,968.44
2016-06-06T14:13:54.798Z,968.5
2016-06-06T14:14:54.832Z,968.44
2016-06-06T14:15:54.819Z,968.44
2016-06-06T14:16:54.822Z,968.39
2016-06-06T14:17:54.824Z,968.43
2016-06-06T14:18:54.826Z,968.47
2016-06-06T14:19:54.829Z,968.43
2016-06-06T14:20:54.832Z,968.47
2016-06-06T14:21:54.850Z,968.47
2016-06-06T14:22:54.837Z,968.43
2016-06-06T14:23:54.856Z,968.41
2016-06-06T14:24:54.843Z,968.43
2016-06-06T14:25:54.862Z,968.45
2016-06-06T14:26:54.864Z,968.44
2016-06-06T14:27:54.866Z,968.42
2016-06-06T14:28:54.870Z,968.44
2016-06-06T14:29:54.872Z,968.46
2016-06-06T14:30:54.874Z,968.4
2016-06-06T14:31:54.878Z,968.39
2016-06-06T14:32:54.880Z,968.4
2016-06-06T14:33:54.883Z,968.4
2016-06-06T14:34:54.885Z,968.34
2016-06-06T14:35:54.888Z,968.32
2016-06-06T14:36:54.907Z,968.3
2016-06-06T14:37:54.910Z,968.29
2016-06-06T14:38:54.912Z,968.26
2016-06-06T14:39:54.916Z,968.3
2016-06-06T14:40:54.918Z,968.31
2016-06-06T14:41:54.920Z,968.33
2016-06-06T14:42:54.923Z,968.31
2016-06-06T14:43:54.926Z,968.3
2016-06-06T14:44:54.929Z,968.28
2016-06-06T14:45:54.931Z,968.26
2016-06-06T14:46:54.949Z,968.27
2016-06-06T14:47:54.936Z,968.24
2016-06-06T14:48:54.955Z,968.28
2016-06-06T14:49:54.957Z,968.27
2016-06-06T14:50:54.959Z,968.3
2016-06-06T14:51:54.962Z,968.31
2016-06-06T14:52:54.965Z,968.28
2016-06-06T14:53:54.967Z,968.26
2016-06-06T14:54:54.970Z,968.27
2016-06-06T14:55:54.973Z,968.22
2016-06-06T14:56:54.976Z,968.24
2016-06-06T14:57:54.978Z,968.25
2016-06-06T14:58:54.982Z,968.26
2016-06-06T14:59:54.984Z,968.25
2016-06-06T15:00:54.987Z,968.22
2016-06-06T15:01:55.021Z,968.21
2016-06-06T15:02:55.008Z,968.25
2016-06-06T15:03:55.011Z,968.29
2016-06-06T15:04:55.013Z,968.28
2016-06-06T15:05:55.016Z,968.26
2016-06-06T15:06:55.035Z,968.23
2016-06-06T15:07:55.021Z,968.22
2016-06-06T15:08:55.025Z,968.26
2016-06-06T15:09:55.027Z,968.18
2016-06-06T15:10:55.029Z,968.18
2016-06-06T15:11:55.032Z,968.14
2016-06-06T15:12:55.051Z,968.14
2016-06-06T15:13:55.037Z,968.12
2016-06-06T15:14:55.212Z,968.17
2016-06-06T15:15:55.043Z,968.19
2016-06-06T15:16:55.061Z,968.11
2016-06-06T15:17:55.064Z,968.14
2016-06-06T15:18:55.067Z,968.11
2016-06-06T15:19:55.070Z,968.17
2016-06-06T15:20:55.073Z,968.17
2016-06-06T15:21:55.075Z,968.1
2016-06-06T15:22:55.078Z,968.15
2016-06-06T15:23:55.081Z,968.1
2016-06-06T15:24:55.084Z,968.15
2016-06-06T15:25:55.086Z,968.14
2016-06-06T15:26:55.088Z,968.13
2016-06-06T15:27:55.091Z,968.14
2016-06-06T15:28:55.109Z,968.11
2016-06-06T15:29:55.112Z,968.13
2016-06-06T15:30:55.584Z,968.13
2016-06-06T15:31:55.117Z,968.12
2016-06-06T15:32:55.120Z,968.1
2016-06-06T15:33:55.122Z,968.07
2016-06-06T15:34:55.126Z,968.17
2016-06-06T15:35:55.128Z,968.15
2016-06-06T15:36:55.131Z,968.16
2016-06-06T15:37:55.133Z,968.15
2016-06-06T15:38:55.136Z,968.17
2016-06-06T15:39:55.139Z,968.16
2016-06-06T15:40:55.141Z,968.14
2016-06-06T15:41:55.144Z,968.15
2016-06-06T15:42:55.162Z,968.17
2016-06-06T15:43:55.165Z,968.15
2016-06-06T15:44:55.168Z,968.1
2016-06-06T15:45:55.171Z,968.15
2016-06-06T15:46:55.174Z,968.13
2016-06-06T15:47:55.176Z,968.11
2016-06-06T15:48:55.179Z,968.11
2016-06-06T15:49:55.182Z,968.14
2016-06-06T15:50:55.185Z,968.13
2016-06-06T15:51:55.187Z,968.12
2016-06-06T15:52:55.190Z,968.1
2016-06-06T15:53:55.192Z,968.09
2016-06-06T15:54:55.210Z,968.06
2016-06-06T15:55:55.198Z,968.11
2016-06-06T15:56:55.200Z,968.09
2016-06-06T15:57:55.218Z,968.08
2016-06-06T15:58:55.221Z,968.14
2016-06-06T15:59:55.224Z,968.08
2016-06-06T16:00:55.226Z,968.11
2016-06-06T16:01:55.229Z,968.06
2016-06-06T16:02:55.232Z,968.06
2016-06-06T16:03:55.234Z,968.07
2016-06-06T16:04:55.237Z,968.07
2016-06-06T16:05:55.240Z,968.04
2016-06-06T16:06:55.242Z,968.05
2016-06-06T16:07:55.245Z,968.08
2016-06-06T16:08:55.248Z,968.07
2016-06-06T16:09:55.251Z,968.1
2016-06-06T16:10:55.269Z,968.1
2016-06-06T16:11:55.272Z,968.1
2016-06-06T16:12:55.416Z,968.1
2016-06-06T16:13:55.278Z,968.06
2016-06-06T16:14:55.389Z,968.09
2016-06-06T16:15:55.283Z,968.06
2016-06-06T16:16:55.285Z,968.04
2016-06-06T16:17:55.288Z,968.03
2016-06-06T16:18:55.291Z,968.02
2016-06-06T16:19:55.294Z,967.98
2016-06-06T16:20:55.296Z,967.98
2016-06-06T16:21:55.299Z,968.01
2016-06-06T16:22:55.302Z,967.96
2016-06-06T16:23:55.304Z,967.95
2016-06-06T16:24:55.307Z,968.02
2016-06-06T16:25:55.310Z,967.96
2016-06-06T16:26:55.328Z,967.97
2016-06-06T16:27:55.331Z,967.99
2016-06-06T16:28:55.334Z,967.98
2016-06-06T16:29:55.523Z,967.97
2016-06-06T16:30:55.339Z,968
2016-06-06T16:31:55.342Z,968.03
2016-06-06T16:32:55.344Z,968.01
2016-06-06T16:33:55.347Z,968.05
2016-06-06T16:34:55.350Z,968.01
2016-06-06T16:35:55.353Z,968.04
2016-06-06T16:36:55.355Z,968.09
2016-06-06T16:37:55.358Z,968.1
2016-06-06T16:38:55.361Z,968.1
2016-06-06T16:39:55.363Z,968.1
2016-06-06T16:40:55.366Z,968.17
2016-06-06T16:41:55.384Z,968.14
2016-06-06T16:42:55.376Z,968.19
2016-06-06T16:43:55.399Z,968.23
2016-06-06T16:44:55.406Z,968.21
2016-06-06T16:45:55.414Z,968.27
2016-06-06T16:46:55.422Z,968.26
2016-06-06T16:47:55.427Z,968.25
2016-06-06T16:48:55.431Z,968.29
2016-06-06T16:49:55.434Z,968.29
2016-06-06T16:50:55.439Z,968.28
2016-06-06T16:51:55.443Z,968.25
2016-06-06T16:52:55.447Z,968.28
2016-06-06T16:53:55.450Z,968.24
2016-06-06T16:54:55.454Z,968.25
2016-06-06T16:55:55.457Z,968.28
2016-06-06T16:56:55.461Z,968.25
2016-06-06T16:57:55.464Z,968.29
2016-06-06T16:58:55.466Z,968.26
2016-06-06T16:59:55.502Z,968.3
2016-06-06T17:00:55.473Z,968.28
2016-06-06T17:01:55.476Z,968.26
2016-06-06T17:02:55.495Z,968.25
2016-06-06T17:03:55.497Z,968.24
2016-06-06T17:04:55.500Z,968.24
2016-06-06T17:05:55.502Z,968.26
2016-06-06T17:06:55.506Z,968.24
2016-06-06T17:07:55.508Z,968.25
2016-06-06T17:08:55.511Z,968.3
2016-06-06T17:09:55.514Z,968.25
2016-06-06T17:10:55.516Z,968.31
2016-06-06T17:11:55.519Z,968.3
2016-06-06T17:12:55.522Z,968.31
2016-06-06T17:13:55.524Z,968.36
2016-06-06T17:14:55.527Z,968.36
2016-06-06T17:15:55.530Z,968.39
2016-06-06T17:16:55.532Z,968.36
2016-06-06T17:17:55.535Z,968.36
2016-06-06T17:18:55.538Z,968.35
2016-06-06T17:19:55.540Z,968.31
2016-06-06T17:20:55.559Z,968.39
2016-06-06T17:21:55.562Z,968.39
2016-06-06T17:22:55.565Z,968.41
2016-06-06T17:23:55.551Z,968.38
2016-06-06T17:24:55.570Z,968.4
2016-06-06T17:25:55.572Z,968.37
2016-06-06T17:26:55.575Z,968.44
2016-06-06T17:27:55.578Z,968.47
2016-06-06T17:28:55.580Z,968.46
2016-06-06T17:29:55.584Z,968.51
2016-06-06T17:30:55.601Z,968.45
2016-06-06T17:31:55.588Z,968.51
2016-06-06T17:32:55.592Z,968.53
2016-06-06T17:33:55.594Z,968.6
2016-06-06T17:34:55.596Z,968.53
2016-06-06T17:35:55.599Z,968.56
2016-06-06T17:36:55.602Z,968.56
2016-06-06T17:37:55.619Z,968.64
2016-06-06T17:38:55.623Z,968.62
2016-06-06T17:39:55.625Z,968.63
2016-06-06T17:40:55.627Z,968.61
2016-06-06T17:41:55.631Z,968.63
2016-06-06T17:42:55.633Z,968.68
2016-06-06T17:43:55.636Z,968.65
2016-06-06T17:44:55.638Z,968.64
2016-06-06T17:45:55.642Z,968.66
2016-06-06T17:46:55.644Z,968.7
2016-06-06T17:47:55.646Z,968.69
2016-06-06T17:48:55.650Z,968.71
2016-06-06T17:49:55.652Z,968.72
2016-06-06T17:50:55.654Z,968.71
2016-06-06T17:51:55.657Z,968.72
2016-06-06T17:52:55.660Z,968.74
2016-06-06T17:53:55.663Z,968.76
2016-06-06T17:54:55.665Z,968.74
2016-06-06T17:55:55.668Z,968.77
2016-06-06T17:56:55.671Z,968.77
2016-06-06T17:57:55.689Z,968.82
2016-06-06T17:58:55.692Z,968.79
2016-06-06T17:59:56.179Z,968.76
2016-06-06T18:00:55.698Z,968.75
2016-06-06T18:01:55.700Z,968.73
2016-06-06T18:02:55.703Z,968.75
2016-06-06T18:03:55.706Z,968.76
2016-06-06T18:04:55.708Z,968.75
2016-06-06T18:05:55.711Z,968.79
2016-06-06T18:06:55.714Z,968.8
2016-06-06T18:07:55.716Z,968.85
2016-06-06T18:08:55.719Z,968.86
2016-06-06T18:09:55.722Z,968.87
2016-06-06T18:10:55.724Z,968.86
2016-06-06T18:11:55.727Z,968.83
2016-06-06T18:12:55.980Z,968.85
2016-06-06T18:13:55.733Z,968.9
2016-06-06T18:14:55.860Z,968.91
2016-06-06T18:15:55.738Z,968.9
2016-06-06T18:16:55.756Z,968.92
2016-06-06T18:17:55.758Z,968.96
2016-06-06T18:18:55.746Z,968.96
2016-06-06T18:19:55.749Z,968.97
2016-06-06T18:20:55.767Z,968.96
2016-06-06T18:21:55.769Z,968.94
2016-06-06T18:22:55.757Z,968.91
2016-06-06T18:23:55.774Z,968.97
2016-06-06T18:24:55.778Z,968.99
2016-06-06T18:25:55.779Z,968.96
2016-06-06T18:26:55.782Z,968.99
2016-06-06T18:27:55.785Z,969.01
2016-06-06T18:28:55.788Z,969.01
2016-06-06T18:29:55.790Z,969
2016-06-06T18:30:55.794Z,969.02
2016-06-06T18:31:55.796Z,969.07
2016-06-06T18:32:55.798Z,969.07
2016-06-06T18:33:55.801Z,969.09
2016-06-06T18:34:55.804Z,969.07
2016-06-06T18:35:55.807Z,969.08
2016-06-06T18:36:55.809Z,969.09
2016-06-06T18:37:55.812Z,969.09
2016-06-06T18:38:55.831Z,969.09
2016-06-06T18:39:55.817Z,969.13
2016-06-06T18:40:55.820Z,969.1
2016-06-06T18:41:55.823Z,969.09
2016-06-06T18:42:55.825Z,969.09
2016-06-06T18:43:55.829Z,969.08
2016-06-06T18:44:55.941Z,969.05
2016-06-06T18:45:55.834Z,969.11
2016-06-06T18:46:55.852Z,969.09
2016-06-06T18:47:55.855Z,969.08
2016-06-06T18:48:55.858Z,969.12
2016-06-06T18:49:55.860Z,969.13
2016-06-06T18:50:55.863Z,969.11
2016-06-06T18:51:55.866Z,969.13
2016-06-06T18:52:55.869Z,969.14
2016-06-06T18:53:55.871Z,969.16
2016-06-06T18:54:55.873Z,969.13
2016-06-06T18:55:55.877Z,969.09
2016-06-06T18:56:55.879Z,969.12
2016-06-06T18:57:55.882Z,969.11
2016-06-06T18:58:55.885Z,969.14
2016-06-06T18:59:55.887Z,969.13
2016-06-06T19:00:55.889Z,969.11
2016-06-06T19:01:55.892Z,969.11
2016-06-06T19:02:55.895Z,969.13
2016-06-06T19:03:55.898Z,969.1
2016-06-06T19:04:55.900Z,969.14
2016-06-06T19:05:55.903Z,969.13
2016-06-06T19:06:55.906Z,969.13
2016-06-06T19:07:55.925Z,969.16
2016-06-06T19:08:55.911Z,969.17
2016-06-06T19:09:55.914Z,969.18
2016-06-06T19:10:55.917Z,969.21
2016-06-06T19:11:55.920Z,969.17
2016-06-06T19:12:55.922Z,969.24
2016-06-06T19:13:55.925Z,969.23
2016-06-06T19:14:55.943Z,969.2
2016-06-06T19:15:55.931Z,969.22
2016-06-06T19:16:55.933Z,969.24
2016-06-06T19:17:55.936Z,969.23
2016-06-06T19:18:55.938Z,969.23
2016-06-06T19:19:55.941Z,969.22
2016-06-06T19:20:55.944Z,969.25
2016-06-06T19:21:55.947Z,969.27
2016-06-06T19:22:55.949Z,969.26
2016-06-06T19:23:55.952Z,969.27
2016-06-06T19:24:55.970Z,969.25
2016-06-06T19:25:55.973Z,969.26
2016-06-06T19:26:55.960Z,969.31
2016-06-06T19:27:55.962Z,969.29
2016-06-06T19:28:55.965Z,969.33
2016-06-06T19:29:55.968Z,969.31
2016-06-06T19:30:55.987Z,969.33
2016-06-06T19:31:55.973Z,969.34
2016-06-06T19:32:55.976Z,969.32
2016-06-06T19:33:55.979Z,969.33
2016-06-06T19:34:55.997Z,969.34
2016-06-06T19:35:56.015Z,969.37
2016-06-06T19:36:55.987Z,969.37
2016-06-06T19:37:55.990Z,969.37
2016-06-06T19:38:55.992Z,969.42
2016-06-06T19:39:56.011Z,969.43
2016-06-06T19:40:56.014Z,969.45
2016-06-06T19:41:56.031Z,969.45
2016-06-06T19:42:56.003Z,969.47
2016-06-06T19:43:56.006Z,969.49
2016-06-06T19:44:56.008Z,969.5
2016-06-06T19:45:56.011Z,969.52
2016-06-06T19:46:56.014Z,969.51
2016-06-06T19:47:56.032Z,969.54
2016-06-06T19:48:56.019Z,969.55
2016-06-06T19:49:56.021Z,969.59
2016-06-06T19:50:56.040Z,969.57
2016-06-06T19:51:56.027Z,969.63
2016-06-06T19:52:56.046Z,969.59
2016-06-06T19:53:56.032Z,969.61
2016-06-06T19:54:56.035Z,969.64
2016-06-06T19:55:56.054Z,969.67
2016-06-06T19:56:56.041Z,969.68
2016-06-06T19:57:56.043Z,969.66
2016-06-06T19:58:56.046Z,969.66
2016-06-06T19:59:56.048Z,969.62
2016-06-06T20:00:56.051Z,969.61
2016-06-06T20:01:56.054Z,969.65
2016-06-06T20:02:56.056Z,969.65
2016-06-06T20:03:56.075Z,969.7
2016-06-06T20:04:56.391Z,969.69
2016-06-06T20:05:56.127Z,969.7
2016-06-06T20:06:56.068Z,969.7
2016-06-06T20:07:56.086Z,969.68
2016-06-06T20:08:56.073Z,969.7
2016-06-06T20:09:56.075Z,969.73
2016-06-06T20:10:56.078Z,969.69
2016-06-06T20:11:56.081Z,969.67
2016-06-06T20:12:56.239Z,969.66
2016-06-06T20:13:56.086Z,969.65
2016-06-06T20:14:56.089Z,969.64
2016-06-06T20:15:56.091Z,969.67
2016-06-06T20:16:56.094Z,969.63
2016-06-06T20:17:56.097Z,969.65
2016-06-06T20:18:56.100Z,969.69
2016-06-06T20:19:56.274Z,969.66
2016-06-06T20:20:56.106Z,969.63
2016-06-06T20:21:56.108Z,969.61
2016-06-06T20:22:56.110Z,969.67
2016-06-06T20:23:56.113Z,969.68
2016-06-06T20:24:56.116Z,969.65
2016-06-06T20:25:56.134Z,969.64
2016-06-06T20:26:56.121Z,969.64
2016-06-06T20:27:56.124Z,969.6
2016-06-06T20:28:56.127Z,969.61
2016-06-06T20:29:56.129Z,969.57
2016-06-06T20:30:56.132Z,969.65
2016-06-06T20:31:56.135Z,969.69
2016-06-06T20:32:56.138Z,969.71
2016-06-06T20:33:56.141Z,969.67
2016-06-06T20:34:56.143Z,969.68
2016-06-06T20:35:56.145Z,969.64
2016-06-06T20:36:56.148Z,969.66
2016-06-06T20:37:56.151Z,969.66
2016-06-06T20:38:56.153Z,969.67
2016-06-06T20:39:56.156Z,969.62
2016-06-06T20:40:56.159Z,969.56
2016-06-06T20:41:56.162Z,969.61
2016-06-06T20:42:56.164Z,969.62
2016-06-06T20:43:56.167Z,969.66
2016-06-06T20:44:56.169Z,969.67
2016-06-06T20:45:56.172Z,969.64
2016-06-06T20:46:56.175Z,969.66
2016-06-06T20:47:56.178Z,969.63
2016-06-06T20:48:56.180Z,969.61
2016-06-06T20:49:56.980Z,969.61
2016-06-06T20:50:56.654Z,969.62
2016-06-06T20:51:56.188Z,969.59
2016-06-06T20:52:56.191Z,969.58
2016-06-06T20:53:56.194Z,969.57
2016-06-06T20:54:56.196Z,969.55
2016-06-06T20:55:56.199Z,969.59
2016-06-06T20:56:56.202Z,969.61
2016-06-06T20:57:56.205Z,969.61
2016-06-06T20:58:56.207Z,969.63
2016-06-06T20:59:56.210Z,969.61
2016-06-06T21:00:56.213Z,969.61
2016-06-06T21:01:56.216Z,969.64
2016-06-06T21:02:56.203Z,969.61
2016-06-06T21:03:56.204Z,969.62
2016-06-06T21:04:56.411Z,969.61
2016-06-06T21:05:56.211Z,969.58
2016-06-06T21:06:56.213Z,969.57
2016-06-06T21:07:56.215Z,969.63
2016-06-06T21:08:56.218Z,969.62
2016-06-06T21:09:56.221Z,969.64
2016-06-06T21:10:56.224Z,969.65
2016-06-06T21:11:56.226Z,969.64
2016-06-06T21:12:56.229Z,969.67